Terminal Aerodrome Forecast
Issued by NWS Shreveport, LA

Home | Current Version | Previous Version | Text Only | Print | Product List | Glossary On
Versions: 1 2 3 4 5 6 7 8 9 10 11 12 13 14 15
000
FTUS44 KSHV 200500 RRA
TAFELD
TAF
KELD 200541Z 2006/2106 05006KT P6SM SCT010 OVC045
      TEMPO 2006/2009 BKN023
     FM200900 03004KT 6SM BR SCT025 OVC040
      TEMPO 2009/2013 4SM BR BKN023
     FM201600 04004KT P6SM SCT030 OVC035
     FM210000 00000KT P6SM SCT030=

USA.gov is the U.S. government's official web portal to all federal, state and local government web resources and services.